sensor_id;sensor_type;location;lat;lon;timestamp;pressure;altitude;pressure_sealevel;temperature;humidity
22389;BME280;11362;48.102;11.620;2022-12-18T00:02:15;96183.81;;;23.22;31.77
22389;BME280;11362;48.102;11.620;2022-12-18T00:04:41;96179.84;;;23.23;31.79
22389;BME280;11362;48.102;11.620;2022-12-18T00:07:06;96175.91;;;23.21;31.74
22389;BME280;11362;48.102;11.620;2022-12-18T00:09:31;96172.31;;;23.20;31.93
22389;BME280;11362;48.102;11.620;2022-12-18T00:11:57;96167.59;;;23.21;32.00
22389;BME280;11362;48.102;11.620;2022-12-18T00:14:22;96161.63;;;23.19;31.93
22389;BME280;11362;48.102;11.620;2022-12-18T00:16:47;96160.44;;;23.20;32.02
22389;BME280;11362;48.102;11.620;2022-12-18T00:19:13;96168.75;;;23.20;32.04
22389;BME280;11362;48.102;11.620;2022-12-18T00:21:39;96167.16;;;23.19;32.22
22389;BME280;11362;48.102;11.620;2022-12-18T00:24:05;96166.41;;;23.18;32.15
22389;BME280;11362;48.102;11.620;2022-12-18T00:26:32;96182.22;;;23.18;32.29
22389;BME280;11362;48.102;11.620;2022-12-18T00:29:16;96169.16;;;23.18;32.58
22389;BME280;11362;48.102;11.620;2022-12-18T00:31:42;96165.59;;;23.18;32.42
22389;BME280;11362;48.102;11.620;2022-12-18T00:34:10;96179.44;;;23.18;32.20
22389;BME280;11362;48.102;11.620;2022-12-18T00:36:35;96179.84;;;23.16;32.09
22389;BME280;11362;48.102;11.620;2022-12-18T00:39:03;96195.31;;;23.17;32.08
22389;BME280;11362;48.102;11.620;2022-12-18T00:41:29;96202.03;;;23.16;32.09
22389;BME280;11362;48.102;11.620;2022-12-18T00:43:54;96207.94;;;23.15;32.38
22389;BME280;11362;48.102;11.620;2022-12-18T00:46:19;96202.81;;;23.17;32.21
22389;BME280;11362;48.102;11.620;2022-12-18T00:48:44;96208.34;;;23.17;32.32
22389;BME280;11362;48.102;11.620;2022-12-18T00:51:10;96195.69;;;23.16;32.33
22389;BME280;11362;48.102;11.620;2022-12-18T00:53:35;96200.41;;;23.15;32.33
22389;BME280;11362;48.102;11.620;2022-12-18T00:56:00;96200.41;;;23.15;32.52
22389;BME280;11362;48.102;11.620;2022-12-18T00:58:25;96210.69;;;23.15;32.34
22389;BME280;11362;48.102;11.620;2022-12-18T01:00:51;96205.16;;;23.15;32.65
22389;BME280;11362;48.102;11.620;2022-12-18T01:03:16;96198.81;;;23.14;32.80
22389;BME280;11362;48.102;11.620;2022-12-18T01:05:42;96209.13;;;23.14;32.56
22389;BME280;11362;48.102;11.620;2022-12-18T01:08:07;96208.31;;;23.13;32.52
22389;BME280;11362;48.102;11.620;2022-12-18T01:10:32;96210.31;;;23.13;32.27
22389;BME280;11362;48.102;11.620;2022-12-18T01:12:57;96217.81;;;23.12;31.88
22389;BME280;11362;48.102;11.620;2022-12-18T01:15:23;96222.56;;;23.12;32.52
22389;BME280;11362;48.102;11.620;2022-12-18T01:17:48;96221.41;;;23.13;31.98
22389;BME280;11362;48.102;11.620;2022-12-18T01:20:13;96220.97;;;23.11;32.12
22389;BME280;11362;48.102;11.620;2022-12-18T01:22:39;96232.06;;;23.11;32.55
22389;BME280;11362;48.102;11.620;2022-12-18T01:25:05;96243.13;;;23.11;32.26
22389;BME280;11362;48.102;11.620;2022-12-18T01:27:30;96240.38;;;23.11;32.38
22389;BME280;11362;48.102;11.620;2022-12-18T01:29:56;96240.38;;;23.11;32.05
22389;BME280;11362;48.102;11.620;2022-12-18T01:32:21;96252.25;;;23.11;32.40
22389;BME280;11362;48.102;11.620;2022-12-18T01:34:47;96261.34;;;23.12;32.12
22389;BME280;11362;48.102;11.620;2022-12-18T01:37:13;96255.41;;;23.10;32.37
22389;BME280;11362;48.102;11.620;2022-12-18T01:39:38;96250.69;;;23.10;32.51
22389;BME280;11362;48.102;11.620;2022-12-18T01:42:10;96256.59;;;23.09;31.98
22389;BME280;11362;48.102;11.620;2022-12-18T01:49:59;96263.72;;;23.10;32.02
22389;BME280;11362;48.102;11.620;2022-12-18T01:52:29;96270.06;;;23.10;31.99
22389;BME280;11362;48.102;11.620;2022-12-18T01:54:56;96263.34;;;23.11;32.21
22389;BME280;11362;48.102;11.620;2022-12-18T01:57:23;96259.78;;;23.11;32.26
22389;BME280;11362;48.102;11.620;2022-12-18T01:59:51;96262.97;;;23.13;32.47
22389;BME280;11362;48.102;11.620;2022-12-18T02:02:18;96258.56;;;23.12;32.53
22389;BME280;11362;48.102;11.620;2022-12-18T02:04:43;96266.91;;;23.12;31.93
22389;BME280;11362;48.102;11.620;2022-12-18T02:12:42;96255.03;;;23.11;31.56
22389;BME280;11362;48.102;11.620;2022-12-18T02:15:17;96253.03;;;23.12;31.80
22389;BME280;11362;48.102;11.620;2022-12-18T02:17:57;96240.00;;;23.12;31.79
22389;BME280;11362;48.102;11.620;2022-12-18T02:20:34;96235.63;;;23.11;31.89
22389;BME280;11362;48.102;11.620;2022-12-18T02:28:48;96249.50;;;23.11;31.57
22389;BME280;11362;48.102;11.620;2022-12-18T02:31:26;96243.13;;;23.11;31.79
22389;BME280;11362;48.102;11.620;2022-12-18T02:33:58;96245.13;;;23.10;32.08
22389;BME280;11362;48.102;11.620;2022-12-18T02:36:26;96247.91;;;23.10;31.92
22389;BME280;11362;48.102;11.620;2022-12-18T02:38:54;96249.88;;;23.10;31.56
22389;BME280;11362;48.102;11.620;2022-12-18T02:41:23;96245.50;;;23.09;31.55
22389;BME280;11362;48.102;11.620;2022-12-18T02:44:01;96238.00;;;23.09;32.29
22389;BME280;11362;48.102;11.620;2022-12-18T02:46:32;96243.13;;;23.11;31.79
22389;BME280;11362;48.102;11.620;2022-12-18T02:49:12;96234.44;;;23.09;31.99
22389;BME280;11362;48.102;11.620;2022-12-18T02:51:53;96236.00;;;23.10;32.34
22389;BME280;11362;48.102;11.620;2022-12-18T03:00:12;96244.31;;;23.10;32.36
22389;BME280;11362;48.102;11.620;2022-12-18T03:02:53;96251.88;;;23.09;31.77
22389;BME280;11362;48.102;11.620;2022-12-18T03:05:23;96251.88;;;23.09;31.38
22389;BME280;11362;48.102;11.620;2022-12-18T03:07:58;96251.06;;;23.09;32.19
22389;BME280;11362;48.102;11.620;2022-12-18T03:10:27;96245.50;;;23.09;31.76
22389;BME280;11362;48.102;11.620;2022-12-18T03:13:20;96243.94;;;23.08;32.04
22389;BME280;11362;48.102;11.620;2022-12-18T03:15:47;96240.78;;;23.09;32.36
22389;BME280;11362;48.102;11.620;2022-12-18T03:18:21;96236.41;;;23.08;32.27
22389;BME280;11362;48.102;11.620;2022-12-18T03:20:49;96234.44;;;23.09;31.49
22389;BME280;11362;48.102;11.620;2022-12-18T03:23:20;96227.31;;;23.08;31.54
22389;BME280;11362;48.102;11.620;2022-12-18T03:25:48;96235.63;;;23.08;31.86
22389;BME280;11362;48.102;11.620;2022-12-18T03:28:20;96239.56;;;23.07;31.79
22389;BME280;11362;48.102;11.620;2022-12-18T03:30:47;96243.94;;;23.08;32.19
22389;BME280;11362;48.102;11.620;2022-12-18T03:33:25;96230.06;;;23.08;31.64
22389;BME280;11362;48.102;11.620;2022-12-18T03:35:51;96235.63;;;23.08;31.45
22389;BME280;11362;48.102;11.620;2022-12-18T03:38:16;96239.16;;;23.08;31.80
22389;BME280;11362;48.102;11.620;2022-12-18T03:40:53;96238.38;;;23.08;31.57
22389;BME280;11362;48.102;11.620;2022-12-18T03:43:34;96246.69;;;23.08;31.50
22389;BME280;11362;48.102;11.620;2022-12-18T03:49:08;96250.25;;;23.08;31.74
22389;BME280;11362;48.102;11.620;2022-12-18T03:52:03;96251.06;;;23.09;31.68
22389;BME280;11362;48.102;11.620;2022-12-18T03:54:30;96247.47;;;23.08;31.79
22389;BME280;11362;48.102;11.620;2022-12-18T03:57:00;96238.38;;;23.08;31.69
22389;BME280;11362;48.102;11.620;2022-12-18T03:59:28;96242.75;;;23.09;31.90
22389;BME280;11362;48.102;11.620;2022-12-18T04:01:56;96236.81;;;23.07;31.38
22389;BME280;11362;48.102;11.620;2022-12-18T04:04:24;96245.13;;;23.07;31.31
22389;BME280;11362;48.102;11.620;2022-12-18T04:06:51;96254.22;;;23.07;31.47
22389;BME280;11362;48.102;11.620;2022-12-18T04:09:18;96256.97;;;23.07;31.71
22389;BME280;11362;48.102;11.620;2022-12-18T04:11:45;96249.84;;;23.06;31.43
22389;BME280;11362;48.102;11.620;2022-12-18T04:14:11;96247.09;;;23.06;31.26
22389;BME280;11362;48.102;11.620;2022-12-18T04:16:36;96247.88;;;23.07;31.63
22389;BME280;11362;48.102;11.620;2022-12-18T04:19:02;96245.91;;;23.07;31.54
22389;BME280;11362;48.102;11.620;2022-12-18T04:21:28;96245.91;;;23.07;31.16
22389;BME280;11362;48.102;11.620;2022-12-18T04:23:53;96255.00;;;23.08;31.37
22389;BME280;11362;48.102;11.620;2022-12-18T04:26:18;96251.44;;;23.07;31.31
22389;BME280;11362;48.102;11.620;2022-12-18T04:28:43;96251.44;;;23.07;31.79
22389;BME280;11362;48.102;11.620;2022-12-18T04:31:09;96255.00;;;23.08;31.20
22389;BME280;11362;48.102;11.620;2022-12-18T04:33:34;96266.09;;;23.08;31.26
22389;BME280;11362;48.102;11.620;2022-12-18T04:35:59;96257.78;;;23.08;31.44
22389;BME280;11362;48.102;11.620;2022-12-18T04:38:25;96264.09;;;23.08;31.61
22389;BME280;11362;48.102;11.620;2022-12-18T04:40:50;96256.59;;;23.09;31.49
22389;BME280;11362;48.102;11.620;2022-12-18T04:43:16;96255.78;;;23.08;31.02
22389;BME280;11362;48.102;11.620;2022-12-18T04:45:41;96251.88;;;23.09;31.44
22389;BME280;11362;48.102;11.620;2022-12-18T04:48:06;96255.00;;;23.08;31.17
22389;BME280;11362;48.102;11.620;2022-12-18T04:50:31;96267.69;;;23.09;31.49
22389;BME280;11362;48.102;11.620;2022-12-18T04:52:57;96266.88;;;23.08;31.46
22389;BME280;11362;48.102;11.620;2022-12-18T04:55:25;96277.59;;;23.10;31.44
22389;BME280;11362;48.102;11.620;2022-12-18T04:57:51;96276.00;;;23.09;30.94
22389;BME280;11362;48.102;11.620;2022-12-18T05:00:16;96274.03;;;23.09;31.18
22389;BME280;11362;48.102;11.620;2022-12-18T05:02:42;96285.13;;;23.09;31.07
22389;BME280;11362;48.102;11.620;2022-12-18T05:05:07;96269.28;;;23.10;31.09
22389;BME280;11362;48.102;11.620;2022-12-18T05:07:33;96280.34;;;23.10;30.67
22389;BME280;11362;48.102;11.620;2022-12-18T05:09:58;96285.91;;;23.10;30.87
22389;BME280;11362;48.102;11.620;2022-12-18T05:12:24;96280.34;;;23.10;30.87
22389;BME280;11362;48.102;11.620;2022-12-18T05:14:49;96283.13;;;23.10;30.92
22389;BME280;11362;48.102;11.620;2022-12-18T05:17:14;96286.69;;;23.10;31.09
22389;BME280;11362;48.102;11.620;2022-12-18T05:19:40;96283.94;;;23.10;30.94
22389;BME280;11362;48.102;11.620;2022-12-18T05:22:08;96296.59;;;23.11;30.95
22389;BME280;11362;48.102;11.620;2022-12-18T05:24:34;96293.03;;;23.11;31.09
22389;BME280;11362;48.102;11.620;2022-12-18T05:26:59;96293.84;;;23.11;31.00
22389;BME280;11362;48.102;11.620;2022-12-18T05:29:25;96288.28;;;23.11;30.93
22389;BME280;11362;48.102;11.620;2022-12-18T05:31:50;96287.47;;;23.11;30.84
22389;BME280;11362;48.102;11.620;2022-12-18T05:34:15;96289.06;;;23.12;31.03
22389;BME280;11362;48.102;11.620;2022-12-18T05:36:41;96293.84;;;23.11;31.08
22389;BME280;11362;48.102;11.620;2022-12-18T05:39:06;96296.59;;;23.11;30.86
22389;BME280;11362;48.102;11.620;2022-12-18T05:41:31;96296.59;;;23.11;30.99
22389;BME280;11362;48.102;11.620;2022-12-18T05:43:57;96306.88;;;23.11;30.74
22389;BME280;11362;48.102;11.620;2022-12-18T05:46:23;96310.06;;;23.09;30.53
22389;BME280;11362;48.102;11.620;2022-12-18T05:48:48;96306.88;;;23.11;30.67
22389;BME280;11362;48.102;11.620;2022-12-18T05:51:16;96306.09;;;23.10;30.71
22389;BME280;11362;48.102;11.620;2022-12-18T05:53:42;96306.88;;;23.11;30.94
22389;BME280;11362;48.102;11.620;2022-12-18T05:56:13;96312.44;;;23.11;30.79
22389;BME280;11362;48.102;11.620;2022-12-18T05:58:39;96315.63;;;23.13;31.45
22389;BME280;11362;48.102;11.620;2022-12-18T06:01:19;96309.28;;;23.12;31.24
22389;BME280;11362;48.102;11.620;2022-12-18T06:03:44;96318.78;;;23.11;30.54
22389;BME280;11362;48.102;11.620;2022-12-18T06:06:19;96322.31;;;23.12;31.25
22389;BME280;11362;48.102;11.620;2022-12-18T06:08:45;96310.47;;;23.11;31.19
22389;BME280;11362;48.102;11.620;2022-12-18T06:11:11;96317.97;;;23.11;30.90
22389;BME280;11362;48.102;11.620;2022-12-18T06:13:37;96312.84;;;23.13;31.27
22389;BME280;11362;48.102;11.620;2022-12-18T06:16:06;96325.09;;;23.12;31.04
22389;BME280;11362;48.102;11.620;2022-12-18T06:18:32;96323.50;;;23.11;31.19
22389;BME280;11362;48.102;11.620;2022-12-18T06:20:59;96322.31;;;23.12;30.93
22389;BME280;11362;48.102;11.620;2022-12-18T06:23:25;96316.38;;;23.10;30.94
22389;BME280;11362;48.102;11.620;2022-12-18T06:25:50;96307.69;;;23.11;30.92
22389;BME280;11362;48.102;11.620;2022-12-18T06:28:16;96316.78;;;23.12;30.75
22389;BME280;11362;48.102;11.620;2022-12-18T06:30:45;96324.31;;;23.11;30.73
22389;BME280;11362;48.102;11.620;2022-12-18T06:33:11;96329.88;;;23.11;30.63
22389;BME280;11362;48.102;11.620;2022-12-18T06:35:36;96327.88;;;23.12;31.03
22389;BME280;11362;48.102;11.620;2022-12-18T06:38:02;96333.41;;;23.12;30.73
22389;BME280;11362;48.102;11.620;2022-12-18T06:40:27;96326.28;;;23.11;30.66
22389;BME280;11362;48.102;11.620;2022-12-18T06:42:53;96338.19;;;23.11;30.39
22389;BME280;11362;48.102;11.620;2022-12-18T06:45:18;96344.09;;;23.10;30.95
22389;BME280;11362;48.102;11.620;2022-12-18T06:47:44;96342.13;;;23.10;30.69
22389;BME280;11362;48.102;11.620;2022-12-18T06:50:09;96344.09;;;23.10;30.48
22389;BME280;11362;48.102;11.620;2022-12-18T06:52:34;96337.78;;;23.09;30.59
22389;BME280;11362;48.102;11.620;2022-12-18T06:55:00;96341.31;;;23.10;30.61
22389;BME280;11362;48.102;11.620;2022-12-18T06:57:25;96344.91;;;23.10;30.10
22389;BME280;11362;48.102;11.620;2022-12-18T06:59:50;96355.19;;;23.10;30.76
22389;BME280;11362;48.102;11.620;2022-12-18T07:02:15;96356.78;;;23.11;30.79
22389;BME280;11362;48.102;11.620;2022-12-18T07:04:41;96358.75;;;23.10;30.79
22389;BME280;11362;48.102;11.620;2022-12-18T07:07:06;96364.31;;;23.10;30.81
22389;BME280;11362;48.102;11.620;2022-12-18T07:09:31;96365.50;;;23.09;30.92
22389;BME280;11362;48.102;11.620;2022-12-18T07:11:57;96374.22;;;23.11;30.62
22389;BME280;11362;48.102;11.620;2022-12-18T07:14:22;96369.44;;;23.12;30.78
22389;BME280;11362;48.102;11.620;2022-12-18T07:16:48;96376.16;;;23.11;30.51
22389;BME280;11362;48.102;11.620;2022-12-18T07:19:13;96367.84;;;23.11;30.41
22389;BME280;11362;48.102;11.620;2022-12-18T07:21:38;96373.41;;;23.11;30.70
22389;BME280;11362;48.102;11.620;2022-12-18T07:24:04;96375.41;;;23.10;30.39
22389;BME280;11362;48.102;11.620;2022-12-18T07:26:30;96380.94;;;23.10;30.52
22389;BME280;11362;48.102;11.620;2022-12-18T07:28:55;96382.91;;;23.10;30.64
22389;BME280;11362;48.102;11.620;2022-12-18T07:31:21;96383.28;;;23.08;30.13
22389;BME280;11362;48.102;11.620;2022-12-18T07:33:46;96392.41;;;23.09;30.55
22389;BME280;11362;48.102;11.620;2022-12-18T07:36:13;96387.25;;;23.11;30.31
22389;BME280;11362;48.102;11.620;2022-12-18T07:38:38;96388.44;;;23.10;30.12
22389;BME280;11362;48.102;11.620;2022-12-18T07:41:07;96390.03;;;23.11;30.32
22389;BME280;11362;48.102;11.620;2022-12-18T07:43:33;96381.72;;;23.11;30.09
22389;BME280;11362;48.102;11.620;2022-12-18T07:45:59;96385.66;;;23.10;30.16
22389;BME280;11362;48.102;11.620;2022-12-18T07:48:24;96377.34;;;23.10;30.19
22389;BME280;11362;48.102;11.620;2022-12-18T07:50:49;96374.59;;;23.10;30.12
22389;BME280;11362;48.102;11.620;2022-12-18T07:53:15;96376.16;;;23.11;30.60
22389;BME280;11362;48.102;11.620;2022-12-18T07:55:41;96374.59;;;23.10;30.13
22389;BME280;11362;48.102;11.620;2022-12-18T07:58:07;96380.94;;;23.10;29.75
22389;BME280;11362;48.102;11.620;2022-12-18T08:00:33;96380.53;;;23.12;29.90
22389;BME280;11362;48.102;11.620;2022-12-18T08:02:58;96378.94;;;23.11;29.71
22389;BME280;11362;48.102;11.620;2022-12-18T08:05:24;96382.16;;;23.13;31.01
22389;BME280;11362;48.102;11.620;2022-12-18T08:07:49;96382.53;;;23.15;31.32
22389;BME280;11362;48.102;11.620;2022-12-18T08:10:14;96389.69;;;23.16;31.77
22389;BME280;11362;48.102;11.620;2022-12-18T08:12:40;96405.16;;;23.17;32.29
22389;BME280;11362;48.102;11.620;2022-12-18T08:15:06;96413.47;;;23.20;31.47
22389;BME280;11362;48.102;11.620;2022-12-18T08:17:31;96404.34;;;23.20;32.50
22389;BME280;11362;48.102;11.620;2022-12-18T08:19:56;96413.47;;;23.20;32.24
22389;BME280;11362;48.102;11.620;2022-12-18T08:22:22;96421.44;;;23.22;32.42
22389;BME280;11362;48.102;11.620;2022-12-18T08:24:47;96415.06;;;23.21;32.23
22389;BME280;11362;48.102;11.620;2022-12-18T08:27:12;96413.09;;;23.22;32.69
22389;BME280;11362;48.102;11.620;2022-12-18T08:29:38;96421.44;;;23.22;32.88
22389;BME280;11362;48.102;11.620;2022-12-18T08:32:03;96421.81;;;23.24;32.76
22389;BME280;11362;48.102;11.620;2022-12-18T08:34:29;96425.00;;;23.26;33.01
22389;BME280;11362;48.102;11.620;2022-12-18T08:36:54;96414.34;;;23.28;32.82
22389;BME280;11362;48.102;11.620;2022-12-18T08:39:19;96412.72;;;23.27;32.79
22389;BME280;11362;48.102;11.620;2022-12-18T08:41:45;96408.78;;;23.28;33.02
22389;BME280;11362;48.102;11.620;2022-12-18T08:44:10;96422.22;;;23.26;32.56
22389;BME280;11362;48.102;11.620;2022-12-18T08:46:37;96403.63;;;23.26;32.32
22389;BME280;11362;48.102;11.620;2022-12-18T08:49:04;96406.78;;;23.25;32.66
22389;BME280;11362;48.102;11.620;2022-12-18T08:51:30;96419.06;;;23.24;32.57
22389;BME280;11362;48.102;11.620;2022-12-18T08:53:55;96430.94;;;23.24;32.09
22389;BME280;11362;48.102;11.620;2022-12-18T08:56:20;96418.66;;;23.22;31.78
22389;BME280;11362;48.102;11.620;2022-12-18T08:58:46;96450.72;;;23.23;31.91
22389;BME280;11362;48.102;11.620;2022-12-18T09:01:12;96434.84;;;23.20;31.93
22389;BME280;11362;48.102;11.620;2022-12-18T09:03:38;96433.19;;;23.12;29.86
22389;BME280;11362;48.102;11.620;2022-12-18T09:06:04;96446.25;;;23.08;28.94
22389;BME280;11362;48.102;11.620;2022-12-18T09:08:30;96446.25;;;23.08;29.49
22389;BME280;11362;48.102;11.620;2022-12-18T09:10:55;96446.63;;;23.06;29.62
22389;BME280;11362;48.102;11.620;2022-12-18T09:13:21;96442.28;;;23.09;29.93
22389;BME280;11362;48.102;11.620;2022-12-18T09:15:49;96445.06;;;23.09;29.99
22389;BME280;11362;48.102;11.620;2022-12-18T09:18:17;96443.88;;;23.10;30.31
22389;BME280;11362;48.102;11.620;2022-12-18T09:20:43;96447.47;;;23.10;30.02
22389;BME280;11362;48.102;11.620;2022-12-18T09:23:09;96448.22;;;23.11;29.79
22389;BME280;11362;48.102;11.620;2022-12-18T09:25:36;96445.88;;;23.09;30.13
22389;BME280;11362;48.102;11.620;2022-12-18T09:28:12;96440.31;;;23.09;29.90
22389;BME280;11362;48.102;11.620;2022-12-18T09:30:38;96433.97;;;23.09;30.06
22389;BME280;11362;48.102;11.620;2022-12-18T09:33:04;96430.00;;;23.10;30.07
22389;BME280;11362;48.102;11.620;2022-12-18T09:35:30;96438.34;;;23.10;29.78
22389;BME280;11362;48.102;11.620;2022-12-18T09:37:55;96437.53;;;23.06;29.88
22389;BME280;11362;48.102;11.620;2022-12-18T09:40:23;96432.34;;;23.01;29.65
22389;BME280;11362;48.102;11.620;2022-12-18T09:42:55;96428.75;;;23.00;29.11
22389;BME280;11362;48.102;11.620;2022-12-18T09:45:22;96422.03;;;23.01;29.36
22389;BME280;11362;48.102;11.620;2022-12-18T09:47:49;96431.56;;;23.04;29.33
22389;BME280;11362;48.102;11.620;2022-12-18T09:50:29;96430.00;;;23.06;29.27
22389;BME280;11362;48.102;11.620;2022-12-18T09:52:58;96424.06;;;23.08;29.84
22389;BME280;11362;48.102;11.620;2022-12-18T09:55:31;96424.06;;;23.08;30.48
22389;BME280;11362;48.102;11.620;2022-12-18T09:58:06;96413.38;;;23.10;30.57
22389;BME280;11362;48.102;11.620;2022-12-18T10:00:32;96413.78;;;23.12;30.66
22389;BME280;11362;48.102;11.620;2022-12-18T10:03:03;96409.44;;;23.11;30.87
22389;BME280;11362;48.102;11.620;2022-12-18T10:08:32;96415.00;;;23.14;31.37
22389;BME280;11362;48.102;11.620;2022-12-18T10:13:56;96407.91;;;23.17;32.23
22389;BME280;11362;48.102;11.620;2022-12-18T10:16:35;96398.41;;;23.18;31.99
22389;BME280;11362;48.102;11.620;2022-12-18T10:19:22;96390.50;;;23.20;32.12
22389;BME280;11362;48.102;11.620;2022-12-18T10:22:07;96388.13;;;23.18;32.16
22389;BME280;11362;48.102;11.620;2022-12-18T10:24:48;96390.50;;;23.20;33.01
22389;BME280;11362;48.102;11.620;2022-12-18T10:27:22;96394.47;;;23.22;33.80
22389;BME280;11362;48.102;11.620;2022-12-18T10:29:48;96391.72;;;23.26;33.78
22389;BME280;11362;48.102;11.620;2022-12-18T10:32:23;96386.19;;;23.29;34.09
22389;BME280;11362;48.102;11.620;2022-12-18T10:34:50;96374.72;;;23.31;33.90
22389;BME280;11362;48.102;11.620;2022-12-18T10:37:17;96377.91;;;23.33;33.96
22389;BME280;11362;48.102;11.620;2022-12-18T10:39:44;96389.41;;;23.35;34.03
22389;BME280;11362;48.102;11.620;2022-12-18T10:42:17;96392.59;;;23.37;33.86
22389;BME280;11362;48.102;11.620;2022-12-18T10:44:43;96353.78;;;23.37;33.96
22389;BME280;11362;48.102;11.620;2022-12-18T10:47:14;96348.63;;;23.38;33.73
22389;BME280;11362;48.102;11.620;2022-12-18T10:49:47;96355.34;;;23.38;33.51
22389;BME280;11362;48.102;11.620;2022-12-18T10:52:21;96352.59;;;23.38;34.20
22389;BME280;11362;48.102;11.620;2022-12-18T10:54:53;96356.56;;;23.40;34.30
22389;BME280;11362;48.102;11.620;2022-12-18T10:59:56;96372.38;;;23.39;34.31
22389;BME280;11362;48.102;11.620;2022-12-18T11:02:28;96373.97;;;23.40;34.31
22389;BME280;11362;48.102;11.620;2022-12-18T11:04:57;96379.94;;;23.42;34.60
22389;BME280;11362;48.102;11.620;2022-12-18T11:07:23;96383.50;;;23.43;34.56
22389;BME280;11362;48.102;11.620;2022-12-18T11:10:02;96393.41;;;23.44;34.47
22389;BME280;11362;48.102;11.620;2022-12-18T11:12:28;96393.03;;;23.45;34.57
22389;BME280;11362;48.102;11.620;2022-12-18T11:14:58;96393.81;;;23.46;35.54
22389;BME280;11362;48.102;11.620;2022-12-18T11:17:33;96391.44;;;23.48;35.19
22389;BME280;11362;48.102;11.620;2022-12-18T11:23:14;96386.31;;;23.50;35.70
22389;BME280;11362;48.102;11.620;2022-12-18T11:25:39;96390.66;;;23.51;36.14
22389;BME280;11362;48.102;11.620;2022-12-18T11:28:35;96395.06;;;23.52;35.55
22389;BME280;11362;48.102;11.620;2022-12-18T11:33:56;96401.78;;;23.54;35.63
22389;BME280;11362;48.102;11.620;2022-12-18T11:36:23;96393.84;;;23.53;35.56
22389;BME280;11362;48.102;11.620;2022-12-18T11:38:51;96365.31;;;23.52;35.94
22389;BME280;11362;48.102;11.620;2022-12-18T11:41:43;96361.78;;;23.52;36.02
22389;BME280;11362;48.102;11.620;2022-12-18T11:44:28;96353.84;;;23.54;36.31
22389;BME280;11362;48.102;11.620;2022-12-18T11:47:03;96349.06;;;23.54;36.01
22389;BME280;11362;48.102;11.620;2022-12-18T11:49:35;96351.06;;;23.54;35.74
22389;BME280;11362;48.102;11.620;2022-12-18T11:52:21;96347.88;;;23.55;35.53
22389;BME280;11362;48.102;11.620;2022-12-18T11:54:52;96338.78;;;23.55;35.64
22389;BME280;11362;48.102;11.620;2022-12-18T11:57:35;96336.78;;;23.55;35.94
22389;BME280;11362;48.102;11.620;2022-12-18T12:00:13;96346.72;;;23.56;35.61
22389;BME280;11362;48.102;11.620;2022-12-18T12:02:58;96387.53;;;23.56;35.39
22389;BME280;11362;48.102;11.620;2022-12-18T12:05:40;96384.72;;;23.52;34.89
22389;BME280;11362;48.102;11.620;2022-12-18T12:17:18;96374.66;;;20.39;23.92
22389;BME280;11362;48.102;11.620;2022-12-18T12:22:40;96382.13;;;21.46;23.92
22389;BME280;11362;48.102;11.620;2022-12-18T12:25:28;96382.13;;;20.61;21.99
22389;BME280;11362;48.102;11.620;2022-12-18T12:28:12;96358.13;;;21.20;24.14
22389;BME280;11362;48.102;11.620;2022-12-18T12:36:42;96339.69;;;22.41;30.18
22389;BME280;11362;48.102;11.620;2022-12-18T12:39:14;96334.69;;;22.57;31.30
22389;BME280;11362;48.102;11.620;2022-12-18T12:41:45;96333.16;;;22.66;32.30
22389;BME280;11362;48.102;11.620;2022-12-18T12:44:26;96342.31;;;22.77;32.96
22389;BME280;11362;48.102;11.620;2022-12-18T12:46:59;96338.81;;;22.84;33.32
22389;BME280;11362;48.102;11.620;2022-12-18T12:49:27;96338.06;;;22.90;34.49
22389;BME280;11362;48.102;11.620;2022-12-18T12:52:03;96330.16;;;22.96;34.65
22389;BME280;11362;48.102;11.620;2022-12-18T12:54:31;96332.56;;;23.01;34.91
22389;BME280;11362;48.102;11.620;2022-12-18T12:59:50;96342.13;;;23.10;35.13
22389;BME280;11362;48.102;11.620;2022-12-18T13:04:51;96339.44;;;23.17;34.62
22389;BME280;11362;48.102;11.620;2022-12-18T13:07:29;96346.97;;;23.20;35.09
22389;BME280;11362;48.102;11.620;2022-12-18T13:15:45;96346.19;;;23.30;34.85
22389;BME280;11362;48.102;11.620;2022-12-18T13:20:42;96352.59;;;23.38;35.59
22389;BME280;11362;48.102;11.620;2022-12-18T13:25:57;96343.06;;;23.38;35.27
22389;BME280;11362;48.102;11.620;2022-12-18T13:31:09;96356.94;;;23.42;35.19
22389;BME280;11362;48.102;11.620;2022-12-18T13:33:45;96362.13;;;23.43;35.44
22389;BME280;11362;48.102;11.620;2022-12-18T13:36:32;96355.38;;;23.44;35.64
22389;BME280;11362;48.102;11.620;2022-12-18T13:41:46;96360.56;;;23.53;35.31
22389;BME280;11362;48.102;11.620;2022-12-18T13:44:24;96362.19;;;23.57;35.50
22389;BME280;11362;48.102;11.620;2022-12-18T13:46:51;96355.84;;;23.60;35.69
22389;BME280;11362;48.102;11.620;2022-12-18T13:49:23;96358.22;;;23.62;35.72
22389;BME280;11362;48.102;11.620;2022-12-18T13:51:52;96362.22;;;23.68;35.93
22389;BME280;11362;48.102;11.620;2022-12-18T13:54:36;96366.97;;;23.67;36.13
22389;BME280;11362;48.102;11.620;2022-12-18T13:57:04;96360.63;;;23.63;37.13
22389;BME280;11362;48.102;11.620;2022-12-18T13:59:38;96348.31;;;23.61;35.98
22389;BME280;11362;48.102;11.620;2022-12-18T14:02:19;96346.31;;;23.58;36.21
22389;BME280;11362;48.102;11.620;2022-12-18T14:04:46;96368.50;;;23.54;36.20
22389;BME280;11362;48.102;11.620;2022-12-18T14:07:17;96354.22;;;23.52;35.90
22389;BME280;11362;48.102;11.620;2022-12-18T14:09:46;96339.16;;;23.50;35.84
22389;BME280;11362;48.102;11.620;2022-12-18T14:12:17;96342.72;;;23.47;35.75
22389;BME280;11362;48.102;11.620;2022-12-18T14:14:45;96343.91;;;23.46;35.60
22389;BME280;11362;48.102;11.620;2022-12-18T14:17:11;96354.19;;;23.45;35.55
22389;BME280;11362;48.102;11.620;2022-12-18T14:19:41;96349.03;;;23.44;35.28